Time;durP1;ratioP1;P1;durP2;ratioP2;P2;SDS_P1;SDS_P2;PMS_P1;PMS_P2;Temp;Humidity;BMP_temperature;BMP_pressure;BME280_temperature;BME280_humidity;BME280_pressure;Samples;Min_cycle;Max_cycle;Signal;HPM_P1;HPM_P2
2021/05/09 00:00:06;;;;;;;0.10;0.10;;;;;;;;;;5124031;28;20367;-67
2021/05/09 00:02:33;;;;;;;0.10;0.10;;;;;;;;;;5123892;28;20223;-67
2021/05/09 00:04:59;;;;;;;0.10;0.10;;;;;;;;;;5124087;28;20210;-67
2021/05/09 00:07:25;;;;;;;0.10;0.10;;;;;;;;;;5124133;28;20224;-68
2021/05/09 00:09:51;;;;;;;0.10;0.10;;;;;;;;;;5119619;28;20212;-68
2021/05/09 00:12:17;;;;;;;0.10;0.10;;;;;;;;;;5124000;28;20204;-68
2021/05/09 00:14:43;;;;;;;0.10;0.10;;;;;;;;;;5123711;28;20215;-67
2021/05/09 00:17:08;;;;;;;0.10;0.10;;;;;;;;;;5123721;28;20227;-68
2021/05/09 00:19:34;;;;;;;0.10;0.10;;;;;;;;;;5123538;28;20204;-67
2021/05/09 00:22:00;;;;;;;0.10;0.10;;;;;;;;;;5123462;28;20200;-67
2021/05/09 00:24:27;;;;;;;0.10;0.10;;;;;;;;;;5123819;28;20248;-67
2021/05/09 00:26:53;;;;;;;0.10;0.10;;;;;;;;;;5123825;28;20231;-67
2021/05/09 00:29:18;;;;;;;0.10;0.10;;;;;;;;;;5123598;28;20211;-67
2021/05/09 00:31:44;;;;;;;0.10;0.10;;;;;;;;;;5123523;28;20231;-68
2021/05/09 00:34:10;;;;;;;0.10;0.10;;;;;;;;;;5114508;28;20203;-68
2021/05/09 00:36:35;;;;;;;0.10;0.10;;;;;;;;;;5122736;28;20257;-68
2021/05/09 00:39:01;;;;;;;0.10;0.10;;;;;;;;;;5124635;28;20204;-69
2021/05/09 00:41:28;;;;;;;0.10;0.10;;;;;;;;;;5126392;28;20250;-68
2021/05/09 00:43:53;;;;;;;0.10;0.10;;;;;;;;;;5124024;28;20238;-69
2021/05/09 00:46:19;;;;;;;0.10;0.10;;;;;;;;;;5127754;28;20203;-68
2021/05/09 00:48:45;;;;;;;0.10;0.10;;;;;;;;;;5118732;28;20201;-69
2021/05/09 00:51:11;;;;;;;0.10;0.10;;;;;;;;;;5125937;28;20204;-69
2021/05/09 00:53:40;;;;;;;0.10;0.10;;;;;;;;;;5127512;28;20274;-67
2021/05/09 00:56:06;;;;;;;0.10;0.10;;;;;;;;;;5127374;28;20267;-66
2021/05/09 00:58:35;;;;;;;0.10;0.10;;;;;;;;;;5127740;28;20204;-67
2021/05/09 01:01:00;;;;;;;0.10;0.10;;;;;;;;;;5127486;28;20247;-68
2021/05/09 01:03:28;;;;;;;0.10;0.10;;;;;;;;;;5127371;28;20413;-67
2021/05/09 01:05:54;;;;;;;0.10;0.10;;;;;;;;;;5125100;28;20202;-67
2021/05/09 01:08:20;;;;;;;0.10;0.10;;;;;;;;;;5126806;28;20221;-69
2021/05/09 01:10:45;;;;;;;0.10;0.10;;;;;;;;;;5127824;28;20205;-67
2021/05/09 01:13:11;;;;;;;0.10;0.10;;;;;;;;;;5127156;28;20197;-67
2021/05/09 01:15:38;;;;;;;0.10;0.10;;;;;;;;;;5127114;28;20243;-69
2021/05/09 01:18:04;;;;;;;0.10;0.10;;;;;;;;;;5127205;28;20208;-68
2021/05/09 01:20:32;;;;;;;0.10;0.10;;;;;;;;;;5127219;28;20202;-67
2021/05/09 01:22:57;;;;;;;0.10;0.10;;;;;;;;;;5126978;28;20273;-68
2021/05/09 01:25:23;;;;;;;0.10;0.10;;;;;;;;;;5127227;28;20198;-68
2021/05/09 01:27:49;;;;;;;0.10;0.10;;;;;;;;;;5126907;28;20209;-69
2021/05/09 01:30:15;;;;;;;0.10;0.10;;;;;;;;;;5127228;28;20211;-68
2021/05/09 01:32:41;;;;;;;0.10;0.10;;;;;;;;;;5127010;28;20418;-68
2021/05/09 01:35:07;;;;;;;0.10;0.10;;;;;;;;;;5127180;28;20524;-68
2021/05/09 01:37:33;;;;;;;0.10;0.10;;;;;;;;;;5126645;28;20217;-68
2021/05/09 01:39:59;;;;;;;0.10;0.10;;;;;;;;;;5126285;28;20215;-68
2021/05/09 01:42:25;;;;;;;0.10;0.10;;;;;;;;;;5126795;28;20381;-68
2021/05/09 01:44:51;;;;;;;0.10;0.10;;;;;;;;;;5126616;28;20589;-67
2021/05/09 01:47:17;;;;;;;0.10;0.10;;;;;;;;;;5126221;28;20241;-67
2021/05/09 01:49:43;;;;;;;0.10;0.10;;;;;;;;;;5126302;28;20200;-66
2021/05/09 01:52:08;;;;;;;0.10;0.10;;;;;;;;;;5124824;28;20205;-68
2021/05/09 01:54:35;;;;;;;0.10;0.10;;;;;;;;;;5126467;28;20197;-70
2021/05/09 01:57:01;;;;;;;0.10;0.10;;;;;;;;;;5125191;28;20258;-67
2021/05/09 01:59:26;;;;;;;0.10;0.10;;;;;;;;;;5120899;28;20229;-67
2021/05/09 02:01:53;;;;;;;0.10;0.10;;;;;;;;;;5126307;28;20208;-67
2021/05/09 02:04:19;;;;;;;0.10;0.10;;;;;;;;;;5126023;28;20218;-68
2021/05/09 02:06:44;;;;;;;0.10;0.10;;;;;;;;;;5125801;28;20203;-68
2021/05/09 02:09:10;;;;;;;0.10;0.10;;;;;;;;;;5128478;27;20270;-67
2021/05/09 02:11:37;;;;;;;0.10;0.10;;;;;;;;;;5132031;27;20290;-68
2021/05/09 02:14:03;;;;;;;0.10;0.10;;;;;;;;;;5128184;27;20200;-67
2021/05/09 02:16:29;;;;;;;0.10;0.10;;;;;;;;;;5125735;28;20198;-67
2021/05/09 02:18:54;;;;;;;0.10;0.10;;;;;;;;;;5125685;28;20200;-67
2021/05/09 02:21:20;;;;;;;0.10;0.10;;;;;;;;;;5126846;27;20212;-68
2021/05/09 02:23:46;;;;;;;0.10;0.10;;;;;;;;;;5125531;28;20225;-67
2021/05/09 02:26:11;;;;;;;0.10;0.10;;;;;;;;;;5125962;28;20209;-67
2021/05/09 02:28:38;;;;;;;0.10;0.10;;;;;;;;;;5125745;28;20221;-68
2021/05/09 02:31:04;;;;;;;0.10;0.10;;;;;;;;;;5125580;28;20211;-67
2021/05/09 02:33:29;;;;;;;0.10;0.10;;;;;;;;;;5125660;28;20385;-67
2021/05/09 02:35:55;;;;;;;0.10;0.10;;;;;;;;;;5129975;27;20222;-68
2021/05/09 02:38:21;;;;;;;0.10;0.10;;;;;;;;;;5128385;27;20208;-68
2021/05/09 02:40:47;;;;;;;0.10;0.10;;;;;;;;;;5126573;27;20224;-70
2021/05/09 02:43:15;;;;;;;0.10;0.10;;;;;;;;;;5125694;28;20225;-68
2021/05/09 02:45:41;;;;;;;0.10;0.10;;;;;;;;;;5125672;28;20215;-69
2021/05/09 02:48:08;;;;;;;0.10;0.10;;;;;;;;;;5125522;28;20405;-69
2021/05/09 02:50:33;;;;;;;0.10;0.10;;;;;;;;;;5125426;28;20205;-68
2021/05/09 02:52:59;;;;;;;0.10;0.10;;;;;;;;;;5124086;28;20205;-67
2021/05/09 02:55:25;;;;;;;0.10;0.10;;;;;;;;;;5126814;27;20228;-69
2021/05/09 02:57:51;;;;;;;0.10;0.10;;;;;;;;;;5125105;28;20208;-69
2021/05/09 03:00:17;;;;;;;0.10;0.10;;;;;;;;;;5128560;27;20258;-68
2021/05/09 03:02:43;;;;;;;0.10;0.10;;;;;;;;;;5126730;27;20387;-68
2021/05/09 03:05:10;;;;;;;0.10;0.10;;;;;;;;;;5133812;27;20287;-68
2021/05/09 03:07:35;;;;;;;0.10;0.10;;;;;;;;;;5124568;28;20501;-68
2021/05/09 03:10:01;;;;;;;0.10;0.10;;;;;;;;;;5120277;27;20234;-68
2021/05/09 03:12:27;;;;;;;0.10;0.10;;;;;;;;;;5128947;27;20199;-67
2021/05/09 03:14:52;;;;;;;0.10;0.10;;;;;;;;;;5124817;28;20208;-68
2021/05/09 03:17:18;;;;;;;0.10;0.10;;;;;;;;;;5124772;28;20204;-68
2021/05/09 03:19:45;;;;;;;0.10;0.10;;;;;;;;;;5126528;27;20205;-68
2021/05/09 03:22:10;;;;;;;0.10;0.10;;;;;;;;;;5128299;27;20229;-68
2021/05/09 03:24:36;;;;;;;0.10;0.10;;;;;;;;;;5124392;28;20215;-68
2021/05/09 03:27:02;;;;;;;0.10;0.10;;;;;;;;;;5124108;28;20206;-68
2021/05/09 03:29:28;;;;;;;0.10;0.10;;;;;;;;;;5126157;27;20227;-68
2021/05/09 03:31:53;;;;;;;0.10;0.10;;;;;;;;;;5126030;27;20234;-68
2021/05/09 03:34:19;;;;;;;0.10;0.10;;;;;;;;;;5124622;28;20204;-68
2021/05/09 03:36:46;;;;;;;0.10;0.10;;;;;;;;;;5123998;28;20222;-68
2021/05/09 03:39:11;;;;;;;0.10;0.10;;;;;;;;;;5124169;28;20214;-68
2021/05/09 03:41:37;;;;;;;0.10;0.10;;;;;;;;;;5124315;28;20200;-68
2021/05/09 03:44:03;;;;;;;1.70;1.70;;;;;;;;;;5124780;28;20228;-69
2021/05/09 03:46:29;;;;;;;0.10;0.10;;;;;;;;;;5124351;28;20361;-67
2021/05/09 03:48:55;;;;;;;0.10;0.10;;;;;;;;;;5124386;28;20221;-69
2021/05/09 03:51:20;;;;;;;0.10;0.10;;;;;;;;;;5124182;28;20246;-68
2021/05/09 03:53:47;;;;;;;0.10;0.10;;;;;;;;;;5123458;28;20199;-68
2021/05/09 03:56:13;;;;;;;0.10;0.10;;;;;;;;;;5119645;28;20298;-72
2021/05/09 03:58:39;;;;;;;0.10;0.10;;;;;;;;;;5128634;27;20265;-68
2021/05/09 04:01:05;;;;;;;0.10;0.10;;;;;;;;;;5123452;28;20380;-71
2021/05/09 04:03:31;;;;;;;0.10;0.10;;;;;;;;;;5123407;28;20224;-68
2021/05/09 04:05:57;;;;;;;0.10;0.10;;;;;;;;;;5122974;28;20503;-66
2021/05/09 04:08:23;;;;;;;0.10;0.10;;;;;;;;;;5123457;28;20211;-67
2021/05/09 04:10:50;;;;;;;0.10;0.10;;;;;;;;;;5123178;28;20203;-68
2021/05/09 04:13:16;;;;;;;0.10;0.10;;;;;;;;;;5125248;28;20222;-67
2021/05/09 04:15:42;;;;;;;0.10;0.10;;;;;;;;;;5125175;28;20227;-67
2021/05/09 04:18:08;;;;;;;0.10;0.10;;;;;;;;;;5124089;28;20414;-68
2021/05/09 04:20:34;;;;;;;0.10;0.10;;;;;;;;;;5124371;28;20204;-68
2021/05/09 04:23:06;;;;;;;0.10;0.10;;;;;;;;;;5128017;28;20370;-68
2021/05/09 04:25:32;;;;;;;0.10;0.10;;;;;;;;;;5128378;28;20211;-68
2021/05/09 04:27:58;;;;;;;0.10;0.10;;;;;;;;;;5127753;28;20204;-68
2021/05/09 04:30:25;;;;;;;0.10;0.10;;;;;;;;;;5127949;28;20206;-69
2021/05/09 04:32:56;;;;;;;0.10;0.10;;;;;;;;;;5128752;27;20243;-67
2021/05/09 04:35:22;;;;;;;0.10;0.10;;;;;;;;;;5128732;27;20198;-68
2021/05/09 04:37:48;;;;;;;0.10;0.10;;;;;;;;;;5130866;27;20400;-69
2021/05/09 04:40:14;;;;;;;0.10;0.10;;;;;;;;;;5127910;28;20387;-68
2021/05/09 04:42:40;;;;;;;0.10;0.10;;;;;;;;;;5128206;27;20258;-68
2021/05/09 04:45:08;;;;;;;0.10;0.10;;;;;;;;;;5127065;28;20539;-67
2021/05/09 04:47:34;;;;;;;0.10;0.10;;;;;;;;;;5128019;28;20486;-67
2021/05/09 04:49:59;;;;;;;0.10;0.10;;;;;;;;;;5127369;28;20238;-67
2021/05/09 04:52:25;;;;;;;0.10;0.10;;;;;;;;;;5127461;28;20241;-68
2021/05/09 04:54:51;;;;;;;0.10;0.10;;;;;;;;;;5126713;28;20203;-68
2021/05/09 04:57:16;;;;;;;0.10;0.10;;;;;;;;;;5123704;28;20208;-68
2021/05/09 04:59:42;;;;;;;0.10;0.10;;;;;;;;;;5131682;27;20237;-67
2021/05/09 05:02:09;;;;;;;0.10;0.10;;;;;;;;;;5133070;27;20377;-67
2021/05/09 05:04:34;;;;;;;0.10;0.10;;;;;;;;;;5127283;28;20220;-67
2021/05/09 05:07:00;;;;;;;0.10;0.10;;;;;;;;;;5127368;28;20254;-67
2021/05/09 05:09:26;;;;;;;0.10;0.10;;;;;;;;;;5134060;27;20205;-68
2021/05/09 05:11:53;;;;;;;0.10;0.10;;;;;;;;;;5127530;28;20203;-67
2021/05/09 05:14:19;;;;;;;0.10;0.10;;;;;;;;;;5126665;28;20195;-67
2021/05/09 05:16:44;;;;;;;0.10;0.10;;;;;;;;;;5127344;28;20376;-67
2021/05/09 05:19:11;;;;;;;0.10;0.10;;;;;;;;;;5129336;27;20462;-68
2021/05/09 05:21:36;;;;;;;0.10;0.10;;;;;;;;;;5127325;28;20394;-67
2021/05/09 05:24:02;;;;;;;0.10;0.10;;;;;;;;;;5135315;27;20228;-70
2021/05/09 05:26:28;;;;;;;0.10;0.10;;;;;;;;;;5127008;28;20200;-67
2021/05/09 05:28:54;;;;;;;0.10;0.10;;;;;;;;;;5130145;27;20210;-67
2021/05/09 05:31:20;;;;;;;0.10;0.10;;;;;;;;;;5129903;27;20258;-68
2021/05/09 05:33:45;;;;;;;0.10;0.10;;;;;;;;;;5126948;28;20486;-68
2021/05/09 05:36:12;;;;;;;0.10;0.10;;;;;;;;;;5126708;28;20578;-68
2021/05/09 05:38:38;;;;;;;0.10;0.10;;;;;;;;;;5128700;27;20479;-68
2021/05/09 05:41:03;;;;;;;0.10;0.10;;;;;;;;;;5126565;28;20232;-67
2021/05/09 05:43:30;;;;;;;0.10;0.10;;;;;;;;;;5133161;27;20238;-67
2021/05/09 05:45:57;;;;;;;0.10;0.10;;;;;;;;;;5127089;28;20203;-67
2021/05/09 05:48:23;;;;;;;0.10;0.10;;;;;;;;;;5126585;28;20539;-68
2021/05/09 05:50:49;;;;;;;0.10;0.10;;;;;;;;;;5134013;27;20200;-68
2021/05/09 05:53:19;;;;;;;0.10;0.10;;;;;;;;;;5126063;27;20209;-67
2021/05/09 05:55:45;;;;;;;0.10;0.10;;;;;;;;;;5127296;27;20203;-67
2021/05/09 05:58:11;;;;;;;0.10;0.10;;;;;;;;;;5126387;28;20250;-69
2021/05/09 06:00:37;;;;;;;0.10;0.10;;;;;;;;;;5126052;28;20460;-68
2021/05/09 06:03:02;;;;;;;0.10;0.10;;;;;;;;;;5124134;28;20232;-68
2021/05/09 06:05:28;;;;;;;0.10;0.10;;;;;;;;;;5127553;28;20395;-66
2021/05/09 06:07:54;;;;;;;0.37;0.37;;;;;;;;;;5124270;28;20543;-67
2021/05/09 06:10:21;;;;;;;0.10;0.10;;;;;;;;;;5126270;28;20508;-67
2021/05/09 06:12:46;;;;;;;0.10;0.10;;;;;;;;;;5125997;28;20207;-67
2021/05/09 06:15:13;;;;;;;0.10;0.10;;;;;;;;;;5126155;28;20205;-68
2021/05/09 06:17:41;;;;;;;0.10;0.10;;;;;;;;;;5135659;27;20505;-68
2021/05/09 06:20:07;;;;;;;0.10;0.10;;;;;;;;;;5119227;28;20248;-69
2021/05/09 06:22:32;;;;;;;0.10;0.10;;;;;;;;;;5125957;28;20206;-69
2021/05/09 06:24:58;;;;;;;0.10;0.10;;;;;;;;;;5125708;28;20247;-68
2021/05/09 06:27:25;;;;;;;0.10;0.10;;;;;;;;;;5125909;28;20505;-69
2021/05/09 06:29:50;;;;;;;0.10;0.10;;;;;;;;;;5127613;27;20213;-66
2021/05/09 06:32:16;;;;;;;0.10;0.10;;;;;;;;;;5125650;28;20226;-69
2021/05/09 06:34:43;;;;;;;0.10;0.10;;;;;;;;;;5125242;28;20235;-69
2021/05/09 06:37:10;;;;;;;0.00;0.00;;;;;;;;;;5128131;27;20502;-69
2021/05/09 06:39:36;;;;;;;0.10;0.10;;;;;;;;;;5125911;28;20262;-68
2021/05/09 06:42:01;;;;;;;0.10;0.10;;;;;;;;;;5111402;28;20373;-67
2021/05/09 06:44:33;;;;;;;0.10;0.10;;;;;;;;;;5127952;27;20263;-67
2021/05/09 06:47:00;;;;;;;0.10;0.10;;;;;;;;;;5121071;28;20204;-69
2021/05/09 06:49:26;;;;;;;0.10;0.10;;;;;;;;;;5125061;28;20267;-67
2021/05/09 06:51:55;;;;;;;0.10;0.10;;;;;;;;;;5125251;28;20218;-68
2021/05/09 06:54:21;;;;;;;0.10;0.10;;;;;;;;;;5126504;28;20250;-66
2021/05/09 06:56:47;;;;;;;0.10;0.10;;;;;;;;;;5124025;28;20230;-67
2021/05/09 06:59:13;;;;;;;0.10;0.10;;;;;;;;;;5124002;27;20200;-68
2021/05/09 07:01:39;;;;;;;0.10;0.10;;;;;;;;;;5118299;28;20211;-68
2021/05/09 07:04:05;;;;;;;0.10;0.10;;;;;;;;;;5118777;28;20301;-67
2021/05/09 07:06:31;;;;;;;0.10;0.10;;;;;;;;;;5125059;28;20234;-68
2021/05/09 07:08:57;;;;;;;0.10;0.10;;;;;;;;;;5116327;28;20232;-68
2021/05/09 07:11:23;;;;;;;0.10;0.10;;;;;;;;;;5131785;27;20199;-67
2021/05/09 07:13:49;;;;;;;0.10;0.10;;;;;;;;;;5134738;27;20200;-67
2021/05/09 07:16:14;;;;;;;0.10;0.10;;;;;;;;;;5122776;27;20206;-68
2021/05/09 07:18:42;;;;;;;0.10;0.10;;;;;;;;;;5120976;28;20402;-69
2021/05/09 07:21:13;;;;;;;0.10;0.10;;;;;;;;;;5124089;28;20358;-67
2021/05/09 07:23:46;;;;;;;0.03;0.03;;;;;;;;;;5125834;27;20216;-69
2021/05/09 07:26:12;;;;;;;0.10;0.10;;;;;;;;;;5130527;27;20201;-67
2021/05/09 07:28:38;;;;;;;0.10;0.10;;;;;;;;;;5134156;27;20210;-68
2021/05/09 07:31:04;;;;;;;0.10;0.10;;;;;;;;;;5131742;27;20205;-69
2021/05/09 07:33:29;;;;;;;0.10;0.10;;;;;;;;;;5127641;27;20203;-67
2021/05/09 07:35:56;;;;;;;0.10;0.10;;;;;;;;;;5123731;28;20220;-68
2021/05/09 07:38:22;;;;;;;0.10;0.10;;;;;;;;;;5123706;28;20215;-68
2021/05/09 07:40:47;;;;;;;0.10;0.10;;;;;;;;;;5126967;27;20224;-69
2021/05/09 07:43:13;;;;;;;0.07;0.07;;;;;;;;;;5124088;27;20250;-67
2021/05/09 07:45:39;;;;;;;0.03;0.03;;;;;;;;;;5124981;27;20236;-69
2021/05/09 07:48:05;;;;;;;0.10;0.10;;;;;;;;;;5129764;27;20202;-67
2021/05/09 07:50:31;;;;;;;0.10;0.10;;;;;;;;;;5128491;27;20217;-69
2021/05/09 07:52:59;;;;;;;0.10;0.10;;;;;;;;;;5127777;27;20313;-67
2021/05/09 07:55:25;;;;;;;0.10;0.10;;;;;;;;;;5127607;27;20488;-68
2021/05/09 07:57:51;;;;;;;0.13;0.13;;;;;;;;;;5128373;27;20264;-68
2021/05/09 08:00:19;;;;;;;0.00;0.00;;;;;;;;;;5128569;27;20200;-68
2021/05/09 08:02:45;;;;;;;0.10;0.10;;;;;;;;;;5126628;27;20207;-68
2021/05/09 08:05:11;;;;;;;0.10;0.10;;;;;;;;;;5129312;27;20231;-68
2021/05/09 08:07:47;;;;;;;0.10;0.10;;;;;;;;;;5124990;27;20223;-67
2021/05/09 08:10:14;;;;;;;0.10;0.10;;;;;;;;;;5128659;27;20449;-68
2021/05/09 08:12:39;;;;;;;0.10;0.10;;;;;;;;;;5123780;28;20339;-68
2021/05/09 08:15:06;;;;;;;0.00;0.00;;;;;;;;;;5131396;28;20199;-68
2021/05/09 08:17:32;;;;;;;0.10;0.10;;;;;;;;;;5125900;28;20388;-68
2021/05/09 08:19:57;;;;;;;0.10;0.10;;;;;;;;;;5125877;28;20204;-70
2021/05/09 08:22:23;;;;;;;0.10;0.10;;;;;;;;;;5125375;28;20242;-70
2021/05/09 08:24:49;;;;;;;0.10;0.10;;;;;;;;;;5124619;27;20637;-72
2021/05/09 08:27:16;;;;;;;0.10;0.10;;;;;;;;;;5126652;28;20210;-68
2021/05/09 08:29:42;;;;;;;0.00;0.00;;;;;;;;;;5130943;28;21392;-70
2021/05/09 08:32:08;;;;;;;0.00;0.00;;;;;;;;;;5128214;27;20579;-70
2021/05/09 08:34:35;;;;;;;0.10;0.10;;;;;;;;;;5126251;28;20196;-70
2021/05/09 08:37:00;;;;;;;0.10;0.10;;;;;;;;;;5123958;28;20403;-67
2021/05/09 08:39:26;;;;;;;0.10;0.10;;;;;;;;;;5123656;28;20212;-68
2021/05/09 08:41:52;;;;;;;0.10;0.10;;;;;;;;;;5126822;27;20231;-66
2021/05/09 08:44:19;;;;;;;0.10;0.10;;;;;;;;;;5125626;28;20220;-68
2021/05/09 08:46:45;;;;;;;0.10;0.10;;;;;;;;;;5128256;28;20205;-67
2021/05/09 08:49:12;;;;;;;0.10;0.10;;;;;;;;;;5125831;28;20206;-66
2021/05/09 08:51:38;;;;;;;0.10;0.10;;;;;;;;;;5128656;28;20201;-66
2021/05/09 08:54:04;;;;;;;0.10;0.10;;;;;;;;;;5126140;27;20208;-65
2021/05/09 08:56:30;;;;;;;0.10;0.10;;;;;;;;;;5128038;28;20417;-64
2021/05/09 08:58:55;;;;;;;0.10;0.10;;;;;;;;;;5132718;27;20204;-64
2021/05/09 09:01:27;;;;;;;0.00;0.00;;;;;;;;;;5124495;28;20216;-65
2021/05/09 09:03:53;;;;;;;0.08;0.08;;;;;;;;;;5123335;28;20210;-65
2021/05/09 09:06:34;;;;;;;0.10;0.10;;;;;;;;;;5129168;27;20208;-67
2021/05/09 09:09:00;;;;;;;0.10;0.10;;;;;;;;;;5126878;28;20203;-68
2021/05/09 09:11:26;;;;;;;0.10;0.10;;;;;;;;;;5136672;27;20523;-75
2021/05/09 09:14:08;;;;;;;0.00;0.00;;;;;;;;;;5128076;27;20421;-65
2021/05/09 09:16:35;;;;;;;0.00;0.00;;;;;;;;;;5122080;28;20209;-72
2021/05/09 09:19:08;;;;;;;0.10;0.10;;;;;;;;;;5127488;28;20540;-76
2021/05/09 09:21:34;;;;;;;0.10;0.10;;;;;;;;;;5122893;27;20202;-72
2021/05/09 09:24:04;;;;;;;0.00;0.00;;;;;;;;;;5132111;27;20217;-73
2021/05/09 09:26:32;;;;;;;0.10;0.10;;;;;;;;;;5132754;27;20232;-73
2021/05/09 09:28:58;;;;;;;0.05;0.05;;;;;;;;;;5127364;27;20209;-71
2021/05/09 09:31:38;;;;;;;0.10;0.10;;;;;;;;;;5132274;27;20225;-65
2021/05/09 09:34:04;;;;;;;0.10;0.10;;;;;;;;;;5126160;28;20263;-65
2021/05/09 09:36:31;;;;;;;0.10;0.10;;;;;;;;;;5130955;27;20261;-68
2021/05/09 09:38:57;;;;;;;0.00;0.00;;;;;;;;;;5128797;27;20297;-75
2021/05/09 09:41:23;;;;;;;0.00;0.00;;;;;;;;;;5131968;27;20203;-74
2021/05/09 09:43:59;;;;;;;0.10;0.10;;;;;;;;;;5128599;27;20221;-71
2021/05/09 09:46:29;;;;;;;0.10;0.10;;;;;;;;;;5125929;27;20203;-71
2021/05/09 09:48:56;;;;;;;0.10;0.10;;;;;;;;;;5130362;27;20203;-72
2021/05/09 09:51:22;;;;;;;0.08;0.08;;;;;;;;;;5126830;27;20209;-77
2021/05/09 09:53:48;;;;;;;0.10;0.10;;;;;;;;;;5126094;27;20205;-76
2021/05/09 09:56:15;;;;;;;0.10;0.10;;;;;;;;;;5127734;27;20365;-74
2021/05/09 09:58:42;;;;;;;0.00;0.00;;;;;;;;;;5135419;27;20199;-73
2021/05/09 10:01:08;;;;;;;0.00;0.00;;;;;;;;;;5134228;27;20209;-75
2021/05/09 10:03:34;;;;;;;0.00;0.00;;;;;;;;;;5130559;27;20548;-72
2021/05/09 10:06:00;;;;;;;0.10;0.10;;;;;;;;;;5131780;27;20202;-72
2021/05/09 10:08:26;;;;;;;0.08;0.08;;;;;;;;;;5135108;27;20217;-74
2021/05/09 10:10:55;;;;;;;0.00;0.00;;;;;;;;;;5128069;27;20215;-73
2021/05/09 10:13:21;;;;;;;0.10;0.10;;;;;;;;;;5125466;27;20201;-73
2021/05/09 10:15:47;;;;;;;0.10;0.10;;;;;;;;;;5126125;27;20267;-73
2021/05/09 10:18:14;;;;;;;0.10;0.10;;;;;;;;;;5126027;27;20385;-75
2021/05/09 10:20:40;;;;;;;0.00;0.00;;;;;;;;;;5128404;27;20199;-70
2021/05/09 10:23:07;;;;;;;0.00;0.00;;;;;;;;;;5127068;27;20199;-70
2021/05/09 10:25:42;;;;;;;0.00;0.00;;;;;;;;;;5130105;27;20232;-69
2021/05/09 10:28:09;;;;;;;0.05;0.05;;;;;;;;;;5126006;27;20235;-71
2021/05/09 10:30:41;;;;;;;0.00;0.00;;;;;;;;;;5134075;27;20258;-69
2021/05/09 10:33:07;;;;;;;0.10;0.10;;;;;;;;;;5127516;27;20588;-70
2021/05/09 10:35:35;;;;;;;0.00;0.00;;;;;;;;;;5129594;27;20201;-66
2021/05/09 10:38:02;;;;;;;0.10;0.10;;;;;;;;;;5128010;27;20213;-65
2021/05/09 10:40:31;;;;;;;0.00;0.00;;;;;;;;;;5129141;27;20211;-68
2021/05/09 10:43:12;;;;;;;0.10;0.10;;;;;;;;;;5133597;27;20272;-67
2021/05/09 10:45:52;;;;;;;0.05;0.05;;;;;;;;;;5130626;27;20226;-67
2021/05/09 10:48:32;;;;;;;0.00;0.00;;;;;;;;;;5127161;27;20365;-68
2021/05/09 10:51:17;;;;;;;0.10;0.10;;;;;;;;;;5125627;28;20515;-69
2021/05/09 10:53:43;;;;;;;0.00;0.00;;;;;;;;;;5117878;27;20209;-67
2021/05/09 10:56:30;;;;;;;0.00;0.00;;;;;;;;;;5127011;28;20212;-68
2021/05/09 10:58:57;;;;;;;0.10;0.10;;;;;;;;;;5123969;27;20446;-69
2021/05/09 11:01:24;;;;;;;0.10;0.10;;;;;;;;;;5127702;27;20218;-70
2021/05/09 11:03:55;;;;;;;0.00;0.00;;;;;;;;;;5118793;28;20233;-70
2021/05/09 11:06:35;;;;;;;0.00;0.00;;;;;;;;;;5126770;27;20436;-69
2021/05/09 11:09:01;;;;;;;0.00;0.00;;;;;;;;;;5132788;27;20194;-69
2021/05/09 11:11:51;;;;;;;0.00;0.00;;;;;;;;;;5137633;27;20265;-69
2021/05/09 11:14:18;;;;;;;0.00;0.00;;;;;;;;;;5113793;28;20202;-68
2021/05/09 11:16:45;;;;;;;0.00;0.00;;;;;;;;;;5125190;28;20309;-69
2021/05/09 11:19:12;;;;;;;0.00;0.00;;;;;;;;;;5132582;27;20202;-69
2021/05/09 11:21:40;;;;;;;0.10;0.10;;;;;;;;;;5131717;27;20216;-69
2021/05/09 11:24:06;;;;;;;0.00;0.00;;;;;;;;;;5119317;27;20218;-70
2021/05/09 11:26:37;;;;;;;0.00;0.00;;;;;;;;;;5124734;28;20198;-69
2021/05/09 11:29:06;;;;;;;0.00;0.00;;;;;;;;;;5122527;28;20515;-70
2021/05/09 11:31:33;;;;;;;0.00;0.00;;;;;;;;;;5124773;28;20533;-67
2021/05/09 11:33:59;;;;;;;0.00;0.00;;;;;;;;;;5133274;27;20202;-69
2021/05/09 11:36:25;;;;;;;0.00;0.00;;;;;;;;;;5127759;27;20221;-68
2021/05/09 11:38:51;;;;;;;0.00;0.00;;;;;;;;;;5124810;28;20401;-70
2021/05/09 11:41:17;;;;;;;0.00;0.00;;;;;;;;;;5124256;28;20202;-69
2021/05/09 11:43:58;;;;;;;0.00;0.00;;;;;;;;;;5127663;27;20263;-67
2021/05/09 11:46:24;;;;;;;0.00;0.00;;;;;;;;;;5123994;28;20218;-69
2021/05/09 11:48:50;;;;;;;0.00;0.00;;;;;;;;;;5123804;28;20389;-69
2021/05/09 11:51:16;;;;;;;0.00;0.00;;;;;;;;;;5124050;28;20206;-69
2021/05/09 11:53:42;;;;;;;0.00;0.00;;;;;;;;;;5124471;28;20323;-68
2021/05/09 11:56:08;;;;;;;0.00;0.00;;;;;;;;;;5123942;28;20202;-68
2021/05/09 11:58:34;;;;;;;0.00;0.00;;;;;;;;;;5124207;28;20265;-69
2021/05/09 12:00:59;;;;;;;0.00;0.00;;;;;;;;;;5124294;28;20214;-70
2021/05/09 12:03:25;;;;;;;0.00;0.00;;;;;;;;;;5123008;28;20206;-68
2021/05/09 12:05:52;;;;;;;0.00;0.00;;;;;;;;;;5123983;28;20249;-68
2021/05/09 12:08:19;;;;;;;0.00;0.00;;;;;;;;;;5124156;28;20206;-69
2021/05/09 12:10:45;;;;;;;0.00;0.00;;;;;;;;;;5123833;28;20241;-69
2021/05/09 12:13:10;;;;;;;0.00;0.00;;;;;;;;;;5123980;28;20249;-69
2021/05/09 12:15:37;;;;;;;0.00;0.00;;;;;;;;;;5123924;28;20217;-69
2021/05/09 12:18:03;;;;;;;0.00;0.00;;;;;;;;;;5123689;28;20202;-69
2021/05/09 12:20:31;;;;;;;0.00;0.00;;;;;;;;;;5124817;28;20206;-68
2021/05/09 12:23:00;;;;;;;0.00;0.00;;;;;;;;;;5123969;28;20419;-69
2021/05/09 12:25:33;;;;;;;0.00;0.00;;;;;;;;;;5124101;28;20293;-70
2021/05/09 12:28:06;;;;;;;0.00;0.00;;;;;;;;;;5123800;28;20190;-69
2021/05/09 12:30:31;;;;;;;0.00;0.00;;;;;;;;;;5123632;28;20225;-69
2021/05/09 12:32:57;;;;;;;0.00;0.00;;;;;;;;;;5123606;28;20238;-69
2021/05/09 12:35:23;;;;;;;0.00;0.00;;;;;;;;;;5123644;28;20209;-69
2021/05/09 12:38:02;;;;;;;0.00;0.00;;;;;;;;;;5123427;28;20237;-69
2021/05/09 12:40:29;;;;;;;0.00;0.00;;;;;;;;;;5125664;28;20500;-70
2021/05/09 12:43:00;;;;;;;0.10;0.10;;;;;;;;;;5127615;28;20224;-71
2021/05/09 12:45:30;;;;;;;0.00;0.00;;;;;;;;;;5127980;28;20434;-68
2021/05/09 12:47:59;;;;;;;0.00;0.00;;;;;;;;;;5127656;28;20202;-68
2021/05/09 12:50:25;;;;;;;0.00;0.00;;;;;;;;;;5127777;28;20197;-68
2021/05/09 12:52:50;;;;;;;0.00;0.00;;;;;;;;;;5127680;28;20206;-69
2021/05/09 12:55:23;;;;;;;0.00;0.00;;;;;;;;;;5127667;28;20211;-69
2021/05/09 12:58:04;;;;;;;0.00;0.00;;;;;;;;;;5123955;28;20517;-69
2021/05/09 13:00:30;;;;;;;0.10;0.10;;;;;;;;;;5127734;27;20276;-68
2021/05/09 13:02:56;;;;;;;0.00;0.00;;;;;;;;;;5125544;28;20500;-68
2021/05/09 13:05:24;;;;;;;0.00;0.00;;;;;;;;;;5127242;28;20218;-69
2021/05/09 13:07:49;;;;;;;0.00;0.00;;;;;;;;;;5127423;28;20230;-69
2021/05/09 13:10:16;;;;;;;0.00;0.00;;;;;;;;;;5136459;27;20204;-69
2021/05/09 13:12:42;;;;;;;0.00;0.00;;;;;;;;;;5127319;28;20198;-68
2021/05/09 13:15:10;;;;;;;0.00;0.00;;;;;;;;;;5127365;28;20284;-68
2021/05/09 13:17:36;;;;;;;0.00;0.00;;;;;;;;;;5127179;28;20416;-70
2021/05/09 13:20:02;;;;;;;0.00;0.00;;;;;;;;;;5126868;28;20206;-70
2021/05/09 13:22:28;;;;;;;0.00;0.00;;;;;;;;;;5126844;27;20198;-69
2021/05/09 13:24:57;;;;;;;0.00;0.00;;;;;;;;;;5126558;28;20407;-69
2021/05/09 13:27:22;;;;;;;0.00;0.00;;;;;;;;;;5126814;28;20448;-69
2021/05/09 13:29:49;;;;;;;0.00;0.00;;;;;;;;;;5126895;28;20202;-69
2021/05/09 13:32:15;;;;;;;0.00;0.00;;;;;;;;;;5122472;28;20226;-69
2021/05/09 13:34:41;;;;;;;0.00;0.00;;;;;;;;;;5126960;28;20201;-69
2021/05/09 13:37:07;;;;;;;0.00;0.00;;;;;;;;;;5131631;27;20521;-68
2021/05/09 13:39:32;;;;;;;0.00;0.00;;;;;;;;;;5132096;27;20373;-69
2021/05/09 13:41:58;;;;;;;0.00;0.00;;;;;;;;;;5131947;27;20509;-69
2021/05/09 13:44:25;;;;;;;0.00;0.00;;;;;;;;;;5126646;28;20551;-69
2021/05/09 13:46:51;;;;;;;0.00;0.00;;;;;;;;;;5129444;27;20277;-69
2021/05/09 13:49:17;;;;;;;0.00;0.00;;;;;;;;;;5127532;28;20221;-69
2021/05/09 13:51:43;;;;;;;0.20;0.20;;;;;;;;;;5125797;28;20212;-68
2021/05/09 13:54:09;;;;;;;0.00;0.00;;;;;;;;;;5126686;28;20365;-69
2021/05/09 13:56:35;;;;;;;0.00;0.00;;;;;;;;;;5126284;28;20217;-68
2021/05/09 13:59:01;;;;;;;0.00;0.00;;;;;;;;;;5126707;28;20202;-70
2021/05/09 14:01:27;;;;;;;0.00;0.00;;;;;;;;;;5126519;28;20228;-70
2021/05/09 14:03:54;;;;;;;0.00;0.00;;;;;;;;;;5125394;28;20209;-70
2021/05/09 14:06:19;;;;;;;0.00;0.00;;;;;;;;;;5126322;28;20202;-68
2021/05/09 14:08:45;;;;;;;0.00;0.00;;;;;;;;;;5135622;27;20224;-70
2021/05/09 14:11:12;;;;;;;0.00;0.00;;;;;;;;;;5126389;28;20485;-69
2021/05/09 14:13:38;;;;;;;0.10;0.10;;;;;;;;;;5133734;27;20197;-70
2021/05/09 14:16:04;;;;;;;0.00;0.00;;;;;;;;;;5126084;27;20240;-69
2021/05/09 14:18:30;;;;;;;0.00;0.00;;;;;;;;;;5126181;28;20252;-68
2021/05/09 14:20:56;;;;;;;0.00;0.00;;;;;;;;;;5125723;28;20210;-70
2021/05/09 14:23:22;;;;;;;0.03;0.03;;;;;;;;;;5126251;28;20501;-70
2021/05/09 14:25:48;;;;;;;0.05;0.05;;;;;;;;;;5125644;27;20243;-68
2021/05/09 14:28:14;;;;;;;0.00;0.00;;;;;;;;;;5127483;27;20520;-69
2021/05/09 14:30:40;;;;;;;0.00;0.00;;;;;;;;;;5126144;27;20396;-69
2021/05/09 14:33:06;;;;;;;0.00;0.00;;;;;;;;;;5125617;28;20247;-69
2021/05/09 14:35:32;;;;;;;0.00;0.00;;;;;;;;;;5125623;28;20198;-69
2021/05/09 14:37:59;;;;;;;0.00;0.00;;;;;;;;;;5126671;27;20365;-70
2021/05/09 14:40:26;;;;;;;0.00;0.00;;;;;;;;;;5126423;27;20243;-68